Time;durP1;ratioP1;P1;durP2;ratioP2;P2;SDS_P1;SDS_P2;PMS_P1;PMS_P2;Temp;Humidity;BMP_temperature;BMP_pressure;BME280_temperature;BME280_humidity;BME280_pressure;Samples;Min_cycle;Max_cycle;Signal;HPM_P1;HPM_P2
2024/01/19 00:00:46;;;;;;;10.63;3.63;;;0.30;99.90;;;;;;5062915;28;20021;-70
2024/01/19 00:03:12;;;;;;;9.95;3.15;;;0.20;99.90;;;;;;5061842;28;20041;-68
2024/01/19 00:05:37;;;;;;;21.65;3.72;;;0.20;99.90;;;;;;5062738;28;20045;-71
2024/01/19 00:08:03;;;;;;;12.18;3.67;;;0.20;99.90;;;;;;5062923;28;20041;-68
2024/01/19 00:10:30;;;;;;;19.27;3.17;;;0.20;99.90;;;;;;5062861;28;20032;-67
2024/01/19 00:12:56;;;;;;;10.02;3.70;;;0.20;99.90;;;;;;5062207;28;20055;-69
2024/01/19 00:15:22;;;;;;;8.45;3.10;;;0.20;99.90;;;;;;5062920;28;20162;-69
2024/01/19 00:17:47;;;;;;;14.60;3.65;;;0.10;99.90;;;;;;5062843;28;20359;-69
2024/01/19 00:20:13;;;;;;;11.80;3.33;;;0.10;99.90;;;;;;5061444;28;20021;-68
2024/01/19 00:22:38;;;;;;;10.05;3.13;;;0.10;99.90;;;;;;5062821;28;20028;-68
2024/01/19 00:25:04;;;;;;;11.82;3.50;;;0.10;99.90;;;;;;5062796;28;20587;-68
2024/01/19 00:27:30;;;;;;;14.95;3.92;;;0.00;99.90;;;;;;5062511;28;20050;-68
2024/01/19 00:29:56;;;;;;;14.70;3.28;;;0.00;99.90;;;;;;5061886;28;20099;-67
2024/01/19 00:32:21;;;;;;;11.57;3.63;;;0.00;99.90;;;;;;5058040;28;20051;-67
2024/01/19 00:34:47;;;;;;;9.90;3.55;;;0.00;99.90;;;;;;5062092;28;20032;-67
2024/01/19 00:37:14;;;;;;;15.52;3.70;;;0.00;99.90;;;;;;5061423;28;20029;-68
2024/01/19 00:39:40;;;;;;;9.40;3.38;;;-0.10;99.90;;;;;;5062357;28;20028;-68
2024/01/19 00:42:06;;;;;;;10.13;3.45;;;-0.10;99.90;;;;;;5062269;28;20029;-68
2024/01/19 00:44:32;;;;;;;9.55;3.35;;;-0.10;99.90;;;;;;5062590;28;20028;-67
2024/01/19 00:46:58;;;;;;;6.30;2.78;;;-0.10;99.90;;;;;;5061669;28;20025;-68
2024/01/19 00:49:24;;;;;;;15.30;3.70;;;-0.10;99.90;;;;;;5061099;28;20071;-68
2024/01/19 00:51:50;;;;;;;14.40;3.63;;;-0.10;99.90;;;;;;5062344;28;20462;-68
2024/01/19 00:54:15;;;;;;;8.05;3.10;;;-0.10;99.90;;;;;;5062286;28;20071;-68
2024/01/19 00:56:41;;;;;;;8.13;2.83;;;-0.10;99.90;;;;;;5061125;28;20021;-70
2024/01/19 00:59:06;;;;;;;7.40;3.05;;;-0.10;99.90;;;;;;5062459;28;20490;-69
2024/01/19 01:01:32;;;;;;;8.95;2.65;;;-0.10;99.90;;;;;;5062158;28;20029;-68
2024/01/19 01:03:58;;;;;;;8.98;2.90;;;-0.20;99.90;;;;;;5061385;28;20733;-68
2024/01/19 01:06:24;;;;;;;9.07;3.03;;;-0.20;99.90;;;;;;5060974;28;20025;-68
2024/01/19 01:08:50;;;;;;;6.13;2.33;;;-0.20;99.90;;;;;;5064224;28;20029;-68
2024/01/19 01:11:16;;;;;;;11.77;3.15;;;-0.10;99.90;;;;;;5065851;28;20041;-67
2024/01/19 01:13:41;;;;;;;9.55;3.30;;;-0.10;99.90;;;;;;5065622;28;20029;-69
2024/01/19 01:16:07;;;;;;;9.48;2.80;;;-0.10;99.90;;;;;;5063937;28;20029;-68
2024/01/19 01:18:32;;;;;;;9.35;2.50;;;-0.10;99.90;;;;;;5066123;28;20025;-69
2024/01/19 01:20:58;;;;;;;9.48;2.38;;;0.00;99.90;;;;;;5065712;28;20025;-67
2024/01/19 01:23:24;;;;;;;15.05;2.92;;;0.00;99.90;;;;;;5065553;28;20099;-69
2024/01/19 01:25:50;;;;;;;6.97;2.30;;;0.10;99.90;;;;;;5065693;28;20031;-67
2024/01/19 01:28:15;;;;;;;10.25;2.25;;;0.10;99.90;;;;;;5065681;28;20044;-68
2024/01/19 01:30:41;;;;;;;13.15;3.17;;;0.10;99.90;;;;;;5064018;28;20021;-70
2024/01/19 01:33:07;;;;;;;5.90;2.15;;;0.20;99.90;;;;;;5065346;28;20025;-70
2024/01/19 01:35:33;;;;;;;9.70;2.28;;;0.20;99.90;;;;;;5065834;28;20056;-69
2024/01/19 01:37:59;;;;;;;13.63;2.28;;;0.20;99.90;;;;;;5065248;28;20029;-69
2024/01/19 01:40:25;;;;;;;9.60;2.47;;;0.20;99.90;;;;;;5065435;28;20021;-69
2024/01/19 01:43:00;;;;;;;7.10;2.30;;;0.20;99.90;;;;;;5065412;28;20029;-68
2024/01/19 01:45:26;;;;;;;9.57;2.00;;;0.20;99.90;;;;;;5065024;28;20021;-68
2024/01/19 01:47:51;;;;;;;16.60;2.67;;;0.20;99.90;;;;;;5065353;28;20055;-68
2024/01/19 01:50:17;;;;;;;10.68;1.92;;;0.20;99.90;;;;;;5065318;28;20055;-68
2024/01/19 01:52:43;;;;;;;7.22;2.00;;;0.10;99.90;;;;;;5064971;28;20028;-68
2024/01/19 01:55:09;;;;;;;9.23;1.90;;;0.10;99.90;;;;;;5065539;28;20031;-68
2024/01/19 01:57:39;;;;;;;9.02;2.17;;;0.10;99.90;;;;;;5064181;28;20021;-68
2024/01/19 02:00:06;;;;;;;11.18;2.42;;;0.10;99.90;;;;;;5063453;28;20541;-68
2024/01/19 02:02:31;;;;;;;8.77;2.28;;;0.10;99.90;;;;;;5063855;28;20072;-67
2024/01/19 02:04:57;;;;;;;7.38;1.70;;;0.10;99.90;;;;;;5064021;28;20077;-69
2024/01/19 02:07:22;;;;;;;9.57;2.20;;;0.10;99.90;;;;;;5064809;28;20043;-67
2024/01/19 02:09:48;;;;;;;13.23;2.03;;;0.10;99.90;;;;;;5065068;28;20025;-67
2024/01/19 02:12:15;;;;;;;7.03;2.15;;;0.10;99.90;;;;;;5064645;28;20039;-68
2024/01/19 02:14:40;;;;;;;7.47;1.88;;;0.10;99.90;;;;;;5063577;28;20040;-68
2024/01/19 02:17:06;;;;;;;8.55;2.00;;;0.10;99.90;;;;;;5062368;28;20040;-69
2024/01/19 02:19:35;;;;;;;8.98;2.00;;;0.10;99.90;;;;;;5061662;28;20089;-68
2024/01/19 02:22:02;;;;;;;5.85;1.67;;;0.10;99.90;;;;;;5064758;28;20052;-67
2024/01/19 02:24:27;;;;;;;6.20;2.05;;;0.10;99.90;;;;;;5064344;28;20417;-68
2024/01/19 02:26:55;;;;;;;11.07;2.10;;;0.10;99.90;;;;;;5063568;28;20029;-68
2024/01/19 02:29:20;;;;;;;8.18;2.08;;;0.10;99.90;;;;;;5064854;28;20024;-66
2024/01/19 02:31:46;;;;;;;7.40;2.25;;;0.10;99.90;;;;;;5064561;28;20033;-68
2024/01/19 02:34:11;;;;;;;4.93;1.58;;;0.10;99.90;;;;;;5064308;28;20037;-67
2024/01/19 02:36:37;;;;;;;5.15;1.80;;;0.10;99.90;;;;;;5062927;28;20063;-69
2024/01/19 02:39:04;;;;;;;6.03;1.52;;;0.10;99.90;;;;;;5064246;28;20029;-68
2024/01/19 02:41:30;;;;;;;8.93;2.00;;;0.10;99.90;;;;;;5063931;28;20021;-68
2024/01/19 02:43:56;;;;;;;8.63;2.10;;;0.10;99.90;;;;;;5064322;28;20044;-68
2024/01/19 02:46:22;;;;;;;14.18;2.83;;;0.10;99.90;;;;;;5064308;28;20029;-68
2024/01/19 02:48:48;;;;;;;11.95;2.42;;;0.10;99.90;;;;;;5063770;28;20072;-67
2024/01/19 02:51:13;;;;;;;8.48;1.80;;;0.10;99.90;;;;;;5064172;28;20020;-69
2024/01/19 02:53:39;;;;;;;9.35;2.15;;;0.10;99.90;;;;;;5064229;28;20029;-67
2024/01/19 02:56:05;;;;;;;12.77;2.30;;;0.10;99.90;;;;;;5063798;28;20025;-67
2024/01/19 02:58:31;;;;;;;8.07;2.33;;;0.10;99.90;;;;;;5064128;28;20033;-68
2024/01/19 03:00:57;;;;;;;11.63;2.13;;;0.10;99.90;;;;;;5063181;28;20048;-66
2024/01/19 03:03:22;;;;;;;8.65;1.75;;;0.10;99.90;;;;;;5063584;28;20037;-68
2024/01/19 03:05:48;;;;;;;12.77;2.58;;;0.10;99.90;;;;;;5063793;28;20070;-70
2024/01/19 03:08:13;;;;;;;6.78;2.30;;;0.10;99.90;;;;;;5063818;28;20501;-68
2024/01/19 03:10:39;;;;;;;10.27;2.25;;;0.10;99.90;;;;;;5062306;28;20020;-68
2024/01/19 03:13:04;;;;;;;11.38;2.42;;;0.10;99.90;;;;;;5063937;28;20029;-68
2024/01/19 03:15:30;;;;;;;10.13;2.35;;;0.10;99.90;;;;;;5063712;28;20028;-69
2024/01/19 03:17:55;;;;;;;9.98;2.30;;;0.10;99.90;;;;;;5063234;28;20025;-69
2024/01/19 03:20:21;;;;;;;11.13;2.72;;;0.10;99.90;;;;;;5063589;28;20025;-68
2024/01/19 03:22:46;;;;;;;9.20;2.70;;;0.10;99.90;;;;;;5062274;28;20106;-69
2024/01/19 03:25:12;;;;;;;11.63;2.50;;;0.10;99.90;;;;;;5063366;28;20052;-68
2024/01/19 03:27:38;;;;;;;4.05;1.85;;;0.10;99.90;;;;;;5062472;28;20053;-69
2024/01/19 03:30:04;;;;;;;7.32;2.28;;;0.10;99.90;;;;;;5062713;28;20060;-68
2024/01/19 03:32:30;;;;;;;8.70;2.30;;;0.10;99.90;;;;;;5062263;28;20083;-68
2024/01/19 03:34:55;;;;;;;9.85;2.47;;;0.10;99.90;;;;;;5061014;28;20032;-70
2024/01/19 03:37:21;;;;;;;7.65;2.70;;;0.10;99.90;;;;;;5062696;28;20029;-68
2024/01/19 03:39:46;;;;;;;7.93;2.20;;;0.10;99.90;;;;;;5062479;28;20044;-68
2024/01/19 03:42:12;;;;;;;10.75;2.95;;;0.00;99.90;;;;;;5062873;28;20020;-69
2024/01/19 03:44:40;;;;;;;8.63;2.20;;;0.00;99.90;;;;;;5062563;28;20021;-68
2024/01/19 03:47:06;;;;;;;6.53;2.25;;;0.00;99.90;;;;;;5061293;28;20156;-67
2024/01/19 03:49:31;;;;;;;15.73;2.53;;;0.10;99.90;;;;;;5062321;28;20017;-68
2024/01/19 03:52:07;;;;;;;7.07;2.28;;;0.10;99.90;;;;;;5062044;28;20055;-68
2024/01/19 03:54:33;;;;;;;7.85;2.17;;;0.10;99.90;;;;;;5061801;28;20024;-68
2024/01/19 03:57:00;;;;;;;6.30;2.10;;;0.10;99.90;;;;;;5062978;28;20032;-68
2024/01/19 03:59:27;;;;;;;4.63;1.85;;;0.10;99.90;;;;;;5062049;28;20032;-68
2024/01/19 04:01:53;;;;;;;9.85;2.22;;;0.10;99.90;;;;;;5062913;28;20021;-67
2024/01/19 04:04:19;;;;;;;4.38;1.25;;;0.20;99.90;;;;;;5061978;28;20447;-67
2024/01/19 04:06:44;;;;;;;8.40;2.15;;;0.10;99.90;;;;;;5062325;28;20032;-67
2024/01/19 04:09:11;;;;;;;3.70;1.50;;;0.10;99.90;;;;;;5062894;28;20048;-67
2024/01/19 04:11:37;;;;;;;5.75;1.55;;;0.10;99.90;;;;;;5061352;28;20028;-68
2024/01/19 04:14:03;;;;;;;7.05;1.38;;;0.10;99.90;;;;;;5062471;28;20048;-69
2024/01/19 04:16:29;;;;;;;5.20;1.30;;;0.00;99.90;;;;;;5062655;28;20036;-68
2024/01/19 04:18:54;;;;;;;4.18;1.60;;;0.10;99.90;;;;;;5061535;28;20029;-70
2024/01/19 04:21:20;;;;;;;4.70;1.80;;;0.10;99.90;;;;;;5061690;28;20030;-69
2024/01/19 04:23:46;;;;;;;3.50;1.80;;;0.10;99.90;;;;;;5060729;28;20052;-66
2024/01/19 04:26:12;;;;;;;5.57;2.22;;;0.10;99.90;;;;;;5062304;28;20033;-67
2024/01/19 04:28:38;;;;;;;6.10;1.75;;;0.20;99.90;;;;;;5062483;28;20033;-67
2024/01/19 04:31:05;;;;;;;4.30;1.88;;;0.20;99.90;;;;;;5062478;28;20028;-68
2024/01/19 04:33:30;;;;;;;8.50;2.10;;;0.20;99.90;;;;;;5060845;28;20040;-67
2024/01/19 04:35:56;;;;;;;13.82;2.40;;;0.10;99.90;;;;;;5062426;28;20470;-69
2024/01/19 04:38:21;;;;;;;4.35;1.50;;;0.10;99.90;;;;;;5062241;28;20029;-69
2024/01/19 04:40:47;;;;;;;6.95;1.95;;;0.10;99.90;;;;;;5061941;28;20039;-67
2024/01/19 04:43:13;;;;;;;3.03;1.55;;;0.10;99.90;;;;;;5061635;28;20112;-68
2024/01/19 04:45:38;;;;;;;6.22;1.35;;;0.10;99.90;;;;;;5062183;28;20107;-68
2024/01/19 04:48:04;;;;;;;7.75;1.98;;;0.10;99.90;;;;;;5062144;28;20048;-68
2024/01/19 04:50:30;;;;;;;5.53;1.45;;;0.10;99.90;;;;;;5062310;28;20064;-67
2024/01/19 04:52:55;;;;;;;4.20;1.55;;;0.10;99.90;;;;;;5061397;28;20029;-69
2024/01/19 04:55:21;;;;;;;3.95;1.48;;;0.10;99.90;;;;;;5061293;28;20533;-68
2024/01/19 04:57:47;;;;;;;4.00;1.48;;;0.00;99.90;;;;;;5060326;28;20475;-66
2024/01/19 05:00:13;;;;;;;6.07;1.48;;;0.00;99.90;;;;;;5062032;28;20025;-68
2024/01/19 05:02:39;;;;;;;3.33;1.50;;;0.00;99.90;;;;;;5060756;28;20125;-69
2024/01/19 05:05:04;;;;;;;5.15;1.83;;;0.00;99.90;;;;;;5061307;28;20045;-68
2024/01/19 05:07:30;;;;;;;4.70;2.08;;;-0.10;99.90;;;;;;5060479;28;20708;-68
2024/01/19 05:09:57;;;;;;;4.10;1.90;;;-0.10;99.90;;;;;;5061930;28;20131;-68
2024/01/19 05:12:23;;;;;;;5.95;1.58;;;-0.10;99.90;;;;;;5062072;28;20112;-68
2024/01/19 05:14:48;;;;;;;4.85;2.05;;;-0.10;99.90;;;;;;5061796;28;20090;-68
2024/01/19 05:17:14;;;;;;;4.47;1.85;;;-0.10;99.90;;;;;;5059486;28;20017;-69
2024/01/19 05:19:39;;;;;;;7.45;2.25;;;-0.10;99.90;;;;;;5056937;28;20037;-69
2024/01/19 05:22:06;;;;;;;7.15;2.40;;;-0.10;99.90;;;;;;5060777;28;20490;-69
2024/01/19 05:24:32;;;;;;;6.72;2.33;;;-0.10;99.90;;;;;;5058512;28;20458;-68
2024/01/19 05:26:57;;;;;;;5.65;2.30;;;-0.10;99.90;;;;;;5057748;28;20025;-68
2024/01/19 05:29:23;;;;;;;4.88;1.98;;;-0.10;99.90;;;;;;5059316;28;20097;-70
2024/01/19 05:31:49;;;;;;;7.95;2.63;;;-0.10;99.90;;;;;;5061513;28;20027;-68
2024/01/19 05:34:15;;;;;;;9.68;2.67;;;-0.10;99.90;;;;;;5061142;28;20021;-68
2024/01/19 05:36:41;;;;;;;9.20;3.03;;;-0.10;99.90;;;;;;5061653;28;20025;-68
2024/01/19 05:39:07;;;;;;;9.35;2.83;;;-0.10;99.90;;;;;;5059785;28;20047;-70
2024/01/19 05:41:33;;;;;;;9.00;2.45;;;-0.20;99.90;;;;;;5061805;28;20024;-69
2024/01/19 05:43:59;;;;;;;7.03;2.55;;;-0.10;99.90;;;;;;5060065;28;20047;-68
2024/01/19 05:46:25;;;;;;;11.40;3.20;;;-0.20;99.90;;;;;;5059519;28;20053;-68
2024/01/19 05:48:50;;;;;;;12.23;3.33;;;-0.10;99.90;;;;;;5056584;28;20041;-68
2024/01/19 05:51:16;;;;;;;10.32;2.63;;;-0.20;99.90;;;;;;5059562;28;20037;-68
2024/01/19 05:53:42;;;;;;;7.90;2.83;;;-0.20;99.90;;;;;;5058611;28;20031;-70
2024/01/19 05:56:08;;;;;;;6.97;3.40;;;-0.20;99.90;;;;;;5065236;28;20029;-69
2024/01/19 05:58:34;;;;;;;10.35;2.92;;;-0.20;99.90;;;;;;5065116;28;20024;-68
2024/01/19 06:01:02;;;;;;;12.88;3.55;;;-0.20;99.90;;;;;;5064073;28;20017;-68
2024/01/19 06:03:29;;;;;;;12.93;4.13;;;-0.20;99.90;;;;;;5062601;28;20025;-68
2024/01/19 06:05:55;;;;;;;16.50;4.18;;;-0.10;99.90;;;;;;5062148;28;20039;-68
2024/01/19 06:08:21;;;;;;;9.00;3.33;;;-0.10;99.90;;;;;;5064638;28;20044;-68
2024/01/19 06:10:47;;;;;;;9.70;3.30;;;-0.10;99.90;;;;;;5064713;28;20025;-67
2024/01/19 06:13:13;;;;;;;4.25;2.40;;;0.00;99.90;;;;;;5062178;28;20021;-68
2024/01/19 06:15:39;;;;;;;10.23;4.00;;;0.00;99.90;;;;;;5061166;28;20074;-67
2024/01/19 06:18:05;;;;;;;10.73;3.53;;;0.00;99.90;;;;;;5059425;28;20037;-71
2024/01/19 06:20:30;;;;;;;8.57;3.45;;;-0.10;99.90;;;;;;5060156;28;20032;-68
2024/01/19 06:22:56;;;;;;;9.18;3.75;;;-0.10;99.90;;;;;;5063571;28;20024;-69
2024/01/19 06:25:21;;;;;;;10.60;3.53;;;-0.10;99.90;;;;;;5062767;28;20135;-67
2024/01/19 06:27:47;;;;;;;9.45;3.35;;;-0.20;99.90;;;;;;5062864;28;20108;-68
2024/01/19 06:30:13;;;;;;;6.63;2.80;;;-0.20;99.90;;;;;;5063830;28;20044;-68
2024/01/19 06:32:39;;;;;;;9.77;3.83;;;-0.20;99.90;;;;;;5063401;28;20021;-67
2024/01/19 06:35:05;;;;;;;12.20;4.57;;;-0.20;99.90;;;;;;5064061;28;20119;-67
2024/01/19 06:37:30;;;;;;;10.25;4.13;;;-0.30;99.90;;;;;;5064195;28;20063;-67
2024/01/19 06:39:56;;;;;;;16.75;4.20;;;-0.30;99.90;;;;;;5060007;28;20139;-67
2024/01/19 06:42:21;;;;;;;11.85;4.82;;;-0.30;99.90;;;;;;5063383;28;20175;-67
2024/01/19 06:44:47;;;;;;;15.27;5.10;;;-0.40;99.90;;;;;;5063847;28;20428;-68
2024/01/19 06:47:12;;;;;;;17.10;5.30;;;-0.40;99.90;;;;;;5062362;28;20028;-68
2024/01/19 06:49:39;;;;;;;14.05;5.55;;;-0.40;99.90;;;;;;5063342;28;20025;-69
2024/01/19 06:52:05;;;;;;;16.20;5.55;;;-0.40;99.90;;;;;;5062582;28;20017;-67
2024/01/19 06:54:32;;;;;;;17.75;5.22;;;-0.40;99.90;;;;;;5062983;28;20476;-67
2024/01/19 06:56:58;;;;;;;15.77;6.15;;;-0.40;99.90;;;;;;5058334;28;20032;-68
2024/01/19 06:59:25;;;;;;;22.50;7.30;;;-0.50;99.90;;;;;;5061773;28;20017;-66
2024/01/19 07:01:50;;;;;;;12.40;6.13;;;-0.50;99.90;;;;;;5062169;28;20522;-67
2024/01/19 07:04:16;;;;;;;14.10;5.35;;;-0.50;99.90;;;;;;5061319;28;20113;-68
2024/01/19 07:06:42;;;;;;;10.75;4.97;;;-0.50;99.90;;;;;;5060501;28;20028;-68
2024/01/19 07:09:08;;;;;;;19.45;6.40;;;-0.50;99.90;;;;;;5060987;28;20041;-68
2024/01/19 07:11:37;;;;;;;15.38;5.38;;;-0.60;99.90;;;;;;5053917;28;20035;-67
2024/01/19 07:14:02;;;;;;;15.30;5.05;;;-0.60;99.90;;;;;;5061782;28;20040;-68
2024/01/19 07:16:28;;;;;;;18.10;5.32;;;-0.60;99.90;;;;;;5063713;28;20017;-68
2024/01/19 07:18:53;;;;;;;13.60;6.03;;;-0.60;99.90;;;;;;5060349;28;20043;-67
2024/01/19 07:21:19;;;;;;;12.48;5.25;;;-0.60;99.90;;;;;;5062017;28;20025;-67
2024/01/19 07:23:44;;;;;;;11.70;5.53;;;-0.60;99.90;;;;;;5057863;28;20659;-68
2024/01/19 07:26:10;;;;;;;17.20;5.88;;;-0.60;99.90;;;;;;5062995;28;20029;-67
2024/01/19 07:28:35;;;;;;;14.73;5.75;;;-0.60;99.90;;;;;;5059903;28;20442;-68
2024/01/19 07:31:01;;;;;;;11.63;5.43;;;-0.60;99.90;;;;;;5063436;28;20040;-69
2024/01/19 07:33:28;;;;;;;15.15;5.40;;;-0.60;99.90;;;;;;5062905;28;20025;-68
2024/01/19 07:35:54;;;;;;;16.40;5.63;;;-0.60;99.90;;;;;;5061258;28;20013;-68
2024/01/19 07:38:20;;;;;;;15.10;5.07;;;-0.60;99.90;;;;;;5063061;28;20025;-68
2024/01/19 07:40:45;;;;;;;15.48;5.30;;;-0.60;99.90;;;;;;5063011;28;20033;-67
2024/01/19 07:43:11;;;;;;;17.92;5.15;;;-0.60;99.90;;;;;;5061670;28;20108;-69
2024/01/19 07:45:37;;;;;;;19.85;4.95;;;-0.60;99.90;;;;;;5058676;28;20017;-68
2024/01/19 07:48:02;;;;;;;18.38;4.95;;;-0.50;99.90;;;;;;5062693;28;20029;-67
2024/01/19 07:50:28;;;;;;;16.45;3.97;;;-0.50;99.90;;;;;;5063254;28;20421;-67
2024/01/19 07:52:53;;;;;;;12.55;4.28;;;-0.50;99.90;;;;;;5061292;28;20025;-67
2024/01/19 07:55:20;;;;;;;20.33;4.95;;;-0.40;99.90;;;;;;5060889;28;20025;-67
2024/01/19 07:57:45;;;;;;;20.33;4.65;;;-0.40;99.90;;;;;;5061440;28;20131;-66
2024/01/19 08:00:11;;;;;;;11.50;3.97;;;-0.40;99.90;;;;;;5061161;28;20284;-68
2024/01/19 08:02:37;;;;;;;18.20;3.92;;;-0.30;99.90;;;;;;5060747;28;20138;-67
2024/01/19 08:05:03;;;;;;;13.60;3.55;;;-0.30;99.90;;;;;;5062537;28;20049;-66
2024/01/19 08:07:29;;;;;;;6.32;2.75;;;-0.20;99.90;;;;;;5062220;28;20419;-67
2024/01/19 08:09:54;;;;;;;9.15;2.95;;;-0.20;99.90;;;;;;5062591;28;20028;-68
2024/01/19 08:12:20;;;;;;;19.13;4.75;;;0.00;99.90;;;;;;5062651;28;20010;-67
2024/01/19 08:14:45;;;;;;;17.73;3.80;;;0.10;99.90;;;;;;5061499;28;20021;-69
2024/01/19 08:17:11;;;;;;;12.45;3.33;;;0.20;99.90;;;;;;5061540;28;20122;-68
2024/01/19 08:19:36;;;;;;;12.48;2.72;;;0.30;99.90;;;;;;5062167;28;20029;-67
2024/01/19 08:22:02;;;;;;;11.07;3.10;;;0.50;99.90;;;;;;5059852;28;20041;-67
2024/01/19 08:24:27;;;;;;;10.73;2.95;;;0.70;99.90;;;;;;5059683;28;20056;-67
2024/01/19 08:26:53;;;;;;;13.63;2.83;;;0.90;99.90;;;;;;5059666;28;20088;-68
2024/01/19 08:29:19;;;;;;;9.43;2.53;;;1.10;99.90;;;;;;5059044;28;20025;-67
2024/01/19 08:31:49;;;;;;;9.02;2.55;;;1.30;99.90;;;;;;5056089;28;20057;-67
2024/01/19 08:34:14;;;;;;;8.38;2.20;;;1.40;99.90;;;;;;5061451;28;20462;-67
2024/01/19 08:36:41;;;;;;;13.35;2.70;;;1.50;99.90;;;;;;5059551;28;20056;-67
2024/01/19 08:39:09;;;;;;;5.82;2.13;;;1.40;99.90;;;;;;5061268;28;20091;-68
2024/01/19 08:41:43;;;;;;;17.17;2.35;;;1.20;99.90;;;;;;5061753;28;20013;-67
2024/01/19 08:44:09;;;;;;;10.85;2.28;;;1.10;99.90;;;;;;5059682;28;20055;-67
2024/01/19 08:46:41;;;;;;;13.65;2.30;;;1.20;99.90;;;;;;5057639;28;20041;-66
2024/01/19 08:49:06;;;;;;;9.13;2.28;;;1.40;99.90;;;;;;5054225;28;20042;-67
2024/01/19 08:51:32;;;;;;;8.88;2.15;;;1.70;99.90;;;;;;5047666;28;20087;-67
2024/01/19 08:53:57;;;;;;;4.72;1.90;;;1.90;99.90;;;;;;5052513;28;20778;-68
2024/01/19 08:56:23;;;;;;;6.78;2.20;;;2.20;99.90;;;;;;5060853;28;20025;-67
2024/01/19 08:58:49;;;;;;;11.43;2.60;;;2.40;99.90;;;;;;5061152;28;20033;-68
2024/01/19 09:01:19;;;;;;;7.25;2.67;;;2.40;99.90;;;;;;5059505;28;20033;-67
2024/01/19 09:03:44;;;;;;;10.45;2.70;;;2.30;99.90;;;;;;5059463;28;20024;-69
2024/01/19 09:06:10;;;;;;;11.10;3.13;;;2.30;99.90;;;;;;5061606;28;20032;-69
2024/01/19 09:08:35;;;;;;;7.70;1.80;;;2.40;99.90;;;;;;5059747;28;20048;-67
2024/01/19 09:11:01;;;;;;;8.98;2.10;;;2.40;99.90;;;;;;5059441;28;20095;-66
2024/01/19 09:13:27;;;;;;;7.55;2.45;;;2.50;99.90;;;;;;5056147;28;20025;-66
2024/01/19 09:15:53;;;;;;;7.28;1.88;;;2.60;99.90;;;;;;5059115;28;20110;-66
2024/01/19 09:18:19;;;;;;;7.60;2.55;;;2.60;99.90;;;;;;5061319;28;20067;-66
2024/01/19 09:20:45;;;;;;;7.30;1.90;;;2.60;99.90;;;;;;5061058;28;20021;-68
2024/01/19 09:23:11;;;;;;;9.95;2.10;;;2.50;99.90;;;;;;5061185;28;20047;-67
2024/01/19 09:25:36;;;;;;;11.23;2.92;;;2.40;99.90;;;;;;5061338;28;20067;-66
2024/01/19 09:28:02;;;;;;;10.55;2.22;;;2.50;99.90;;;;;;5061510;28;20100;-65
2024/01/19 09:30:28;;;;;;;9.88;2.65;;;2.40;99.90;;;;;;5064757;28;20029;-64
2024/01/19 09:32:53;;;;;;;8.57;2.33;;;2.40;99.90;;;;;;5062951;28;20033;-69
2024/01/19 09:35:19;;;;;;;12.88;2.75;;;2.30;99.90;;;;;;5063957;28;20035;-66
2024/01/19 09:37:44;;;;;;;9.70;2.60;;;2.20;99.90;;;;;;5064571;28;20056;-67
2024/01/19 09:40:11;;;;;;;13.13;3.13;;;2.20;99.90;;;;;;5064296;28;20458;-67
2024/01/19 09:42:39;;;;;;;16.83;3.13;;;2.30;99.90;;;;;;5062631;28;20821;-69
2024/01/19 09:45:07;;;;;;;10.52;3.17;;;2.50;99.90;;;;;;5064126;28;20035;-67
2024/01/19 09:47:54;;;;;;;6.15;2.63;;;2.60;99.90;;;;;;5064217;28;20182;-67
2024/01/19 09:50:25;;;;;;;11.23;2.83;;;2.80;99.90;;;;;;5063362;28;20481;-67
2024/01/19 09:53:01;;;;;;;11.32;3.22;;;3.10;99.90;;;;;;5063507;28;20039;-67
2024/01/19 09:55:27;;;;;;;9.23;2.70;;;3.20;99.90;;;;;;5062856;28;20025;-66
2024/01/19 09:57:55;;;;;;;13.25;3.00;;;3.30;99.90;;;;;;5061747;28;20099;-69
2024/01/19 10:00:21;;;;;;;15.13;2.92;;;3.50;99.90;;;;;;5063091;28;20029;-69
2024/01/19 10:02:52;;;;;;;8.93;2.92;;;3.70;99.90;;;;;;5061284;28;20057;-67
2024/01/19 10:05:19;;;;;;;9.50;2.50;;;3.90;99.90;;;;;;5063792;28;20040;-67
2024/01/19 10:07:49;;;;;;;11.45;2.72;;;4.10;99.90;;;;;;5061681;28;20032;-67
2024/01/19 10:10:16;;;;;;;12.43;2.80;;;4.40;99.90;;;;;;5063916;28;20025;-68
2024/01/19 10:12:42;;;;;;;13.13;2.53;;;4.50;99.90;;;;;;5063900;28;20029;-67
2024/01/19 10:15:12;;;;;;;8.57;2.45;;;4.70;99.90;;;;;;5062380;28;20461;-67
2024/01/19 10:17:39;;;;;;;16.20;4.38;;;5.00;99.90;;;;;;5063529;28;20067;-66
2024/01/19 10:20:06;;;;;;;9.93;3.40;;;5.10;99.90;;;;;;5063988;28;20043;-66
2024/01/19 10:22:32;;;;;;;12.52;3.53;;;5.10;99.90;;;;;;5064861;28;20134;-68
2024/01/19 10:25:12;;;;;;;9.82;2.67;;;5.30;99.90;;;;;;5059033;28;20028;-68
2024/01/19 10:27:48;;;;;;;7.13;2.80;;;5.50;99.90;;;;;;5062388;28;20037;-68
2024/01/19 10:30:16;;;;;;;11.07;2.67;;;5.70;99.90;;;;;;5059199;28;20037;-67
2024/01/19 10:32:44;;;;;;;7.18;2.28;;;5.40;99.90;;;;;;5062713;28;20029;-69
2024/01/19 10:35:13;;;;;;;14.05;2.83;;;5.40;99.90;;;;;;5063853;28;20085;-67
2024/01/19 10:37:39;;;;;;;11.75;3.00;;;5.40;99.90;;;;;;5063221;28;20503;-67
2024/01/19 10:40:14;;;;;;;16.20;3.45;;;5.60;99.90;;;;;;5060910;28;20025;-68
2024/01/19 10:42:41;;;;;;;11.98;2.90;;;5.70;99.90;;;;;;5063613;28;20029;-69
2024/01/19 10:45:15;;;;;;;8.55;2.88;;;5.70;99.90;;;;;;5063583;28;20025;-67
2024/01/19 10:47:45;;;;;;;11.45;3.13;;;5.60;99.90;;;;;;5064191;28;20032;-66
2024/01/19 10:50:13;;;;;;;13.20;2.33;;;5.50;99.90;;;;;;5062328;28;20394;-66
2024/01/19 10:52:40;;;;;;;10.93;2.88;;;5.30;99.90;;;;;;5061753;28;20039;-67
2024/01/19 10:55:06;;;;;;;10.32;3.22;;;5.20;99.90;;;;;;5063910;28;20044;-66
2024/01/19 10:57:31;;;;;;;10.52;2.40;;;5.10;99.90;;;;;;5064356;28;20029;-68
2024/01/19 10:59:57;;;;;;;11.00;2.40;;;5.00;99.90;;;;;;5062704;28;20025;-68
2024/01/19 11:02:24;;;;;;;8.55;2.20;;;4.90;99.90;;;;;;5064219;28;20025;-70
2024/01/19 11:04:51;;;;;;;10.60;2.60;;;5.10;99.90;;;;;;5063710;28;20052;-67
2024/01/19 11:07:16;;;;;;;11.05;2.67;;;5.30;99.90;;;;;;5063167;28;20028;-67
2024/01/19 11:09:42;;;;;;;11.15;2.70;;;5.40;99.90;;;;;;5063985;28;20444;-68
2024/01/19 11:12:11;;;;;;;11.20;3.08;;;5.70;99.90;;;;;;5061943;28;20052;-68
2024/01/19 11:14:38;;;;;;;15.02;2.67;;;5.80;99.90;;;;;;5063050;28;20029;-69
2024/01/19 11:17:03;;;;;;;10.15;2.85;;;5.70;99.90;;;;;;5063839;28;20100;-68
2024/01/19 11:19:30;;;;;;;8.10;2.33;;;5.50;99.90;;;;;;5061675;28;20044;-67
2024/01/19 11:21:56;;;;;;;9.93;2.40;;;5.20;99.90;;;;;;5061761;28;20063;-69
2024/01/19 11:24:28;;;;;;;6.75;2.35;;;4.80;99.90;;;;;;5060654;28;20027;-66
2024/01/19 11:27:18;;;;;;;14.50;2.70;;;4.60;99.90;;;;;;5059919;28;20092;-69
2024/01/19 11:29:45;;;;;;;14.55;2.63;;;4.30;99.90;;;;;;5061984;28;20032;-70
2024/01/19 11:32:14;;;;;;;8.93;2.13;;;4.20;99.90;;;;;;5062463;28;20028;-68
2024/01/19 11:34:50;;;;;;;15.15;3.42;;;4.20;99.90;;;;;;5063100;28;20081;-69
2024/01/19 11:37:45;;;;;;;11.02;2.63;;;4.30;99.90;;;;;;5062293;28;20040;-67
2024/01/19 11:40:29;;;;;;;9.68;2.08;;;4.80;99.90;;;;;;5061947;28;20060;-68
2024/01/19 11:42:54;;;;;;;13.98;2.88;;;5.30;99.90;;;;;;5060791;28;20036;-68
2024/01/19 11:45:40;;;;;;;10.23;2.80;;;5.60;99.90;;;;;;5062946;28;20033;-68
2024/01/19 11:48:09;;;;;;;20.42;2.63;;;5.90;99.90;;;;;;5062526;28;20041;-68
2024/01/19 11:50:46;;;;;;;15.27;3.33;;;5.90;99.90;;;;;;5061049;28;20036;-68
2024/01/19 11:53:13;;;;;;;11.63;2.50;;;5.80;99.90;;;;;;5057684;28;20036;-67
2024/01/19 11:55:40;;;;;;;15.52;2.88;;;5.50;99.90;;;;;;5060365;28;20059;-68
2024/01/19 11:58:29;;;;;;;8.10;2.60;;;5.50;99.90;;;;;;5062451;28;20045;-68
2024/01/19 12:00:56;;;;;;;16.70;2.80;;;5.80;99.90;;;;;;5061842;28;20043;-68
2024/01/19 12:03:22;;;;;;;10.50;2.13;;;6.50;99.90;;;;;;5062005;28;20088;-68
2024/01/19 12:05:49;;;;;;;15.02;2.35;;;7.30;99.90;;;;;;5059849;28;20047;-68
2024/01/19 12:08:14;;;;;;;10.70;2.35;;;7.80;99.90;;;;;;5062065;28;20063;-67
2024/01/19 12:10:42;;;;;;;6.78;1.98;;;7.90;99.90;;;;;;5062416;28;20405;-67
2024/01/19 12:13:08;;;;;;;10.55;1.92;;;8.10;99.90;;;;;;5061595;28;20036;-67
2024/01/19 12:15:34;;;;;;;18.50;2.40;;;8.20;99.90;;;;;;5057244;28;20108;-68
2024/01/19 12:18:02;;;;;;;16.05;2.30;;;8.30;99.90;;;;;;5059742;28;20017;-68
2024/01/19 12:20:28;;;;;;;18.35;2.28;;;8.60;99.90;;;;;;5059957;28;20028;-69
2024/01/19 12:22:57;;;;;;;15.00;2.53;;;9.00;99.90;;;;;;5059465;28;20074;-69
2024/01/19 12:25:24;;;;;;;10.48;1.90;;;8.70;99.90;;;;;;5061828;28;20033;-68
2024/01/19 12:28:04;;;;;;;20.15;2.83;;;8.20;99.90;;;;;;5058673;28;20033;-68
2024/01/19 12:30:34;;;;;;;12.55;2.20;;;8.20;99.90;;;;;;5060527;28;20021;-68
2024/01/19 12:33:38;;;;;;;11.27;1.85;;;8.20;99.90;;;;;;5062193;28;20033;-69
2024/01/19 12:36:13;;;;;;;10.40;1.90;;;8.10;99.90;;;;;;5062136;28;20051;-67
2024/01/19 12:38:40;;;;;;;10.85;1.95;;;8.00;99.90;;;;;;5061132;28;20025;-68
2024/01/19 12:41:08;;;;;;;10.20;1.92;;;8.00;99.90;;;;;;5062361;28;20037;-68
2024/01/19 12:43:34;;;;;;;9.82;2.10;;;8.00;99.90;;;;;;5059679;28;20041;-69
2024/01/19 12:46:02;;;;;;;14.57;2.15;;;8.20;99.90;;;;;;5062063;28;20025;-68